Time;durP1;ratioP1;P1;durP2;ratioP2;P2;SDS_P1;SDS_P2;PMS_P1;PMS_P2;Temp;Humidity;BMP_temperature;BMP_pressure;BME280_temperature;BME280_humidity;BME280_pressure;Samples;Min_cycle;Max_cycle;Signal;HPM_P1;HPM_P2
2023/02/13 00:01:56;;;;;;;62.10;40.30;;;8.60;79.40;;;;;;5035100;28;20472;-75
2023/02/13 00:04:22;;;;;;;62.78;42.83;;;8.50;79.50;;;;;;5032759;28;20527;-76
2023/02/13 00:06:48;;;;;;;62.30;42.55;;;8.50;79.70;;;;;;5032338;28;20045;-75
2023/02/13 00:09:14;;;;;;;60.05;40.83;;;8.50;79.80;;;;;;5034790;28;20056;-76
2023/02/13 00:11:40;;;;;;;63.03;40.88;;;8.50;79.80;;;;;;5025535;28;20626;-77
2023/02/13 00:14:06;;;;;;;62.08;40.35;;;8.50;79.90;;;;;;5035916;28;20028;-76
2023/02/13 00:16:32;;;;;;;58.35;39.90;;;8.50;80.00;;;;;;5049387;28;20044;-75
2023/02/13 00:18:57;;;;;;;63.47;42.95;;;8.50;80.10;;;;;;5043109;28;20173;-74
2023/02/13 00:21:23;;;;;;;58.25;40.40;;;8.50;80.20;;;;;;5045940;28;20536;-76
2023/02/13 00:23:49;;;;;;;62.05;41.75;;;8.50;80.20;;;;;;5029644;28;20381;-73
2023/02/13 00:26:16;;;;;;;62.20;42.80;;;8.50;80.30;;;;;;5037457;28;20137;-75
2023/02/13 00:28:42;;;;;;;58.15;39.63;;;8.60;80.30;;;;;;5044150;28;20432;-76
2023/02/13 00:31:17;;;;;;;58.42;40.10;;;8.60;80.30;;;;;;5044741;28;20029;-77
2023/02/13 00:33:42;;;;;;;60.45;39.97;;;8.60;80.30;;;;;;5055205;28;20025;-76
2023/02/13 00:36:13;;;;;;;58.13;39.22;;;8.60;80.40;;;;;;5050487;28;20036;-76
2023/02/13 00:38:40;;;;;;;62.80;41.97;;;8.60;80.40;;;;;;5051396;28;20055;-76
2023/02/13 00:41:07;;;;;;;62.25;41.80;;;8.60;80.40;;;;;;5030183;28;20083;-77
2023/02/13 00:43:33;;;;;;;63.20;42.92;;;8.50;80.20;;;;;;5046419;28;20063;-75
2023/02/13 00:45:59;;;;;;;65.38;42.65;;;8.40;80.50;;;;;;5052047;28;20028;-76
2023/02/13 00:48:26;;;;;;;64.80;43.78;;;8.40;80.60;;;;;;5048909;28;20397;-76
2023/02/13 00:50:52;;;;;;;63.63;42.60;;;8.30;80.90;;;;;;5045700;28;20082;-76
2023/02/13 00:53:19;;;;;;;65.45;41.53;;;8.30;81.10;;;;;;5051233;28;20453;-76
2023/02/13 00:55:45;;;;;;;64.68;43.35;;;8.30;81.20;;;;;;5051758;28;20061;-76
2023/02/13 00:58:11;;;;;;;64.55;42.70;;;8.30;81.30;;;;;;5034200;28;20075;-77
2023/02/13 01:00:37;;;;;;;66.60;43.88;;;8.30;81.40;;;;;;5043508;28;20106;-76
2023/02/13 01:03:03;;;;;;;62.58;41.67;;;8.40;81.30;;;;;;5058795;28;20103;-77
2023/02/13 01:05:29;;;;;;;62.47;41.97;;;8.40;81.20;;;;;;5051454;28;20104;-74
2023/02/13 01:07:54;;;;;;;62.70;41.28;;;8.40;81.20;;;;;;5031182;28;20479;-75
2023/02/13 01:10:20;;;;;;;61.85;41.92;;;8.40;81.30;;;;;;5036369;28;20017;-74
2023/02/13 01:12:46;;;;;;;65.45;44.53;;;8.50;81.30;;;;;;5031456;28;20095;-75
2023/02/13 01:15:11;;;;;;;69.45;43.85;;;8.50;81.20;;;;;;5046632;28;20025;-75
2023/02/13 01:17:38;;;;;;;64.20;43.58;;;8.40;81.10;;;;;;5030894;28;20053;-75
2023/02/13 01:20:08;;;;;;;63.78;43.78;;;8.40;81.30;;;;;;5045843;28;20032;-74
2023/02/13 01:22:34;;;;;;;68.80;44.80;;;8.30;81.40;;;;;;5045132;28;20601;-74
2023/02/13 01:25:00;;;;;;;71.35;46.83;;;8.20;81.60;;;;;;5045878;28;20038;-75
2023/02/13 01:27:29;;;;;;;67.35;44.95;;;8.10;82.20;;;;;;5029885;28;20068;-75
2023/02/13 01:29:55;;;;;;;67.75;44.85;;;8.10;82.40;;;;;;5026109;28;20107;-74
2023/02/13 01:32:21;;;;;;;64.75;44.60;;;8.10;82.60;;;;;;5022620;28;20482;-76
2023/02/13 01:34:46;;;;;;;65.50;43.40;;;8.10;82.70;;;;;;5027951;28;20389;-75
2023/02/13 01:37:13;;;;;;;65.10;43.95;;;8.10;82.90;;;;;;5027472;28;20041;-76
2023/02/13 01:39:39;;;;;;;64.53;43.63;;;8.10;82.90;;;;;;5031475;28;20033;-75
2023/02/13 01:42:12;;;;;;;66.68;44.80;;;8.00;82.90;;;;;;5027132;28;20587;-74
2023/02/13 01:44:48;;;;;;;68.57;43.53;;;8.00;82.90;;;;;;5030689;28;20030;-74
2023/02/13 01:47:21;;;;;;;66.03;43.72;;;7.80;83.00;;;;;;5027536;28;20084;-76
2023/02/13 01:49:48;;;;;;;66.95;44.72;;;7.70;83.20;;;;;;5029687;28;20120;-76
2023/02/13 01:52:16;;;;;;;65.70;42.38;;;7.70;83.40;;;;;;5027284;28;20037;-76
2023/02/13 01:54:42;;;;;;;65.75;43.08;;;7.60;83.60;;;;;;5027431;28;20398;-76
2023/02/13 01:57:18;;;;;;;68.45;43.35;;;7.50;83.80;;;;;;5033469;28;20042;-75
2023/02/13 02:00:02;;;;;;;66.15;42.17;;;7.40;83.90;;;;;;5030561;28;20441;-76
2023/02/13 02:02:33;;;;;;;67.70;42.80;;;7.40;84.20;;;;;;5031248;28;20025;-77
2023/02/13 02:05:01;;;;;;;66.15;42.38;;;7.30;84.40;;;;;;5029879;28;20026;-76
2023/02/13 02:07:29;;;;;;;69.25;46.33;;;7.30;84.40;;;;;;5021177;28;20041;-76
2023/02/13 02:10:00;;;;;;;65.18;43.17;;;7.40;84.40;;;;;;5029671;28;20041;-77
2023/02/13 02:12:49;;;;;;;65.78;42.63;;;7.40;84.40;;;;;;5032544;28;20178;-75
2023/02/13 02:15:15;;;;;;;69.88;45.10;;;7.30;84.50;;;;;;5027681;28;20037;-74
2023/02/13 02:17:41;;;;;;;70.68;44.10;;;7.40;84.50;;;;;;5022974;28;20040;-75
2023/02/13 02:20:28;;;;;;;67.75;44.22;;;7.40;84.60;;;;;;5024495;28;20026;-75
2023/02/13 02:23:00;;;;;;;69.22;44.47;;;7.40;84.50;;;;;;5029331;28;20478;-76
2023/02/13 02:25:56;;;;;;;72.63;45.83;;;7.40;84.60;;;;;;5027660;28;20030;-75
2023/02/13 02:28:24;;;;;;;68.75;44.42;;;7.30;84.60;;;;;;5027651;28;20039;-78
2023/02/13 02:31:11;;;;;;;71.95;45.50;;;7.30;84.70;;;;;;5047872;28;20045;-77
2023/02/13 02:33:52;;;;;;;74.30;48.30;;;7.40;84.70;;;;;;5054444;28;20084;-75
2023/02/13 02:37:07;;;;;;;71.63;46.35;;;7.40;84.70;;;;;;5047434;28;20769;-76
2023/02/13 02:39:49;;;;;;;70.72;46.28;;;7.30;84.80;;;;;;4997336;28;20439;-75
2023/02/13 02:42:27;;;;;;;68.13;44.30;;;7.40;84.90;;;;;;5028486;28;20417;-75
2023/02/13 02:45:09;;;;;;;71.72;44.90;;;7.30;84.80;;;;;;5042413;28;20025;-76
2023/02/13 02:50:37;;;;;;;74.45;45.92;;;7.40;84.90;;;;;;5040483;28;20463;-77
2023/02/13 02:53:47;;;;;;;72.18;46.08;;;7.40;84.90;;;;;;5048707;28;20097;-76
2023/02/13 02:56:17;;;;;;;67.47;44.03;;;7.30;85.00;;;;;;5051934;28;20028;-75
2023/02/13 03:07:18;;;;;;;69.15;42.92;;;7.20;85.00;;;;;;5041976;28;20051;-76
2023/02/13 03:22:17;;;;;;;72.28;44.25;;;6.90;85.30;;;;;;5040377;28;20043;-75
2023/02/13 03:24:16;;;;;;;72.15;44.20;;;6.70;85.50;;;;;;5046807;28;20527;-75
2023/02/13 03:30:05;;;;;;;73.70;45.88;;;6.60;85.50;;;;;;5047302;28;20646;-75
2023/02/13 03:30:23;;;;;;;70.93;44.33;;;6.60;85.60;;;;;;5039057;28;20119;-75
2023/02/13 03:32:59;;;;;;;72.28;44.75;;;6.50;85.80;;;;;;5044002;28;20064;-76
2023/02/13 03:38:37;;;;;;;78.03;47.22;;;6.20;86.10;;;;;;5044544;28;20102;-75
2023/02/13 03:41:17;;;;;;;73.60;45.30;;;6.10;86.30;;;;;;5046248;28;20052;-76
2023/02/13 03:44:28;;;;;;;82.70;49.33;;;6.10;86.40;;;;;;5042496;28;20021;-75
2023/02/13 03:46:58;;;;;;;76.50;44.58;;;6.00;86.50;;;;;;5036478;28;20041;-75
2023/02/13 03:50:06;;;;;;;76.57;45.40;;;6.00;86.70;;;;;;5029220;28;20045;-75
2023/02/13 03:52:34;;;;;;;81.10;47.17;;;5.80;86.80;;;;;;4955735;28;20043;-74
2023/02/13 04:01:01;;;;;;;80.95;45.80;;;5.70;87.40;;;;;;5039842;28;20089;-74
2023/02/13 04:03:36;;;;;;;84.45;50.83;;;5.70;87.30;;;;;;5044186;28;20043;-76
2023/02/13 04:06:26;;;;;;;82.60;48.00;;;5.60;87.40;;;;;;5035504;28;20041;-74
2023/02/13 04:08:51;;;;;;;82.20;48.55;;;5.60;87.60;;;;;;5026445;28;20491;-74
2023/02/13 04:11:24;;;;;;;87.63;49.83;;;5.50;87.70;;;;;;5052130;28;20062;-75
2023/02/13 04:14:03;;;;;;;86.72;51.25;;;5.40;87.70;;;;;;5043253;28;20025;-76
2023/02/13 04:16:31;;;;;;;86.60;49.35;;;5.40;87.90;;;;;;5041299;28;20056;-76
2023/02/13 04:18:59;;;;;;;82.68;49.90;;;5.40;88.10;;;;;;5045438;28;20072;-76
2023/02/13 04:21:25;;;;;;;85.28;49.53;;;5.30;88.20;;;;;;5043948;28;20033;-76
2023/02/13 04:23:50;;;;;;;84.32;49.42;;;5.20;88.30;;;;;;5050578;28;20025;-76
2023/02/13 04:26:19;;;;;;;81.80;46.45;;;5.20;88.30;;;;;;5049269;28;20048;-76
2023/02/13 04:28:45;;;;;;;88.70;50.85;;;5.20;88.40;;;;;;5043522;28;20053;-76
2023/02/13 04:31:11;;;;;;;88.78;50.33;;;5.10;88.50;;;;;;5026924;28;20105;-75
2023/02/13 04:33:36;;;;;;;87.30;51.72;;;5.10;88.50;;;;;;5042290;28;20025;-76
2023/02/13 04:36:02;;;;;;;86.35;47.13;;;5.10;88.60;;;;;;5046986;28;20033;-78
2023/02/13 04:38:28;;;;;;;91.57;50.55;;;5.10;88.70;;;;;;5045472;28;20029;-75
2023/02/13 04:40:54;;;;;;;86.47;48.85;;;5.00;88.70;;;;;;5048118;28;20468;-75
2023/02/13 04:43:19;;;;;;;92.88;51.58;;;5.00;88.80;;;;;;5046527;28;20033;-74
2023/02/13 04:45:48;;;;;;;90.28;51.08;;;5.00;88.90;;;;;;5045907;28;20037;-75
2023/02/13 04:48:14;;;;;;;87.10;50.13;;;4.90;88.80;;;;;;5036550;28;20067;-76
2023/02/13 04:50:40;;;;;;;89.45;50.13;;;4.90;88.90;;;;;;5046646;28;20049;-75
2023/02/13 04:53:05;;;;;;;92.18;51.25;;;4.90;89.00;;;;;;5027630;28;20346;-74
2023/02/13 04:55:31;;;;;;;89.80;50.90;;;4.80;89.10;;;;;;5047380;28;20036;-75
2023/02/13 04:57:57;;;;;;;94.95;50.47;;;4.80;89.10;;;;;;5045085;28;20429;-74
2023/02/13 05:00:25;;;;;;;92.82;51.83;;;4.70;89.20;;;;;;5042886;28;20029;-77
2023/02/13 05:02:51;;;;;;;92.65;51.30;;;4.70;89.30;;;;;;5047925;28;20123;-76
2023/02/13 05:05:17;;;;;;;86.68;49.20;;;4.80;89.40;;;;;;5046629;28;20422;-75
2023/02/13 05:07:43;;;;;;;91.45;49.42;;;4.70;89.50;;;;;;5046398;28;20330;-74
2023/02/13 05:10:10;;;;;;;89.20;49.33;;;4.70;89.50;;;;;;5039829;28;20471;-75
2023/02/13 05:12:36;;;;;;;84.57;48.85;;;4.70;89.50;;;;;;5041525;28;20547;-75
2023/02/13 05:15:02;;;;;;;90.80;49.90;;;4.60;89.50;;;;;;5027587;28;20021;-76
2023/02/13 05:17:28;;;;;;;86.30;48.67;;;4.60;89.60;;;;;;5044707;28;20078;-76
2023/02/13 05:19:54;;;;;;;89.03;48.20;;;4.60;89.60;;;;;;5049062;28;20033;-77
2023/02/13 05:25:04;;;;;;;86.75;48.40;;;4.50;89.60;;;;;;5049983;28;20048;-75
2023/02/13 05:27:30;;;;;;;87.70;49.40;;;4.50;89.60;;;;;;5027136;28;20025;-76
2023/02/13 05:29:55;;;;;;;87.13;47.72;;;4.40;89.50;;;;;;5048881;28;20508;-76
2023/02/13 05:32:21;;;;;;;91.43;49.95;;;4.40;89.50;;;;;;5043820;28;20689;-76
2023/02/13 05:34:47;;;;;;;81.68;46.30;;;4.40;89.50;;;;;;5032610;28;20513;-76
2023/02/13 05:37:12;;;;;;;86.22;47.50;;;4.40;89.50;;;;;;5046506;28;20045;-76
2023/02/13 05:39:38;;;;;;;90.13;49.03;;;4.40;89.50;;;;;;5027951;28;20037;-79
2023/02/13 05:42:04;;;;;;;90.88;49.47;;;4.30;89.40;;;;;;5041540;28;20124;-76
2023/02/13 05:44:30;;;;;;;89.13;50.63;;;4.30;89.50;;;;;;5041588;28;20032;-76
2023/02/13 05:46:56;;;;;;;81.80;45.13;;;4.20;89.40;;;;;;5034743;28;20564;-76
2023/02/13 05:49:22;;;;;;;88.53;50.35;;;4.20;89.40;;;;;;5042106;28;20068;-78
2023/02/13 05:51:48;;;;;;;86.32;48.90;;;4.20;89.40;;;;;;5038027;28;20059;-76
2023/02/13 05:54:14;;;;;;;82.72;46.67;;;4.10;89.40;;;;;;5035434;28;20105;-76
2023/02/13 05:56:40;;;;;;;77.78;45.75;;;4.10;89.40;;;;;;5022602;28;20037;-76
2023/02/13 05:59:06;;;;;;;80.95;46.50;;;4.00;89.40;;;;;;5047049;28;20017;-76
2023/02/13 06:01:32;;;;;;;83.72;48.63;;;4.00;89.40;;;;;;5043266;28;20041;-75
2023/02/13 06:03:58;;;;;;;83.95;45.95;;;3.90;89.40;;;;;;5042685;28;20056;-76
2023/02/13 06:06:24;;;;;;;101.93;54.85;;;3.90;89.50;;;;;;5028626;28;20069;-76
2023/02/13 06:08:50;;;;;;;108.47;52.72;;;3.90;89.50;;;;;;5046576;28;20462;-75
2023/02/13 06:11:16;;;;;;;107.78;53.70;;;3.90;89.40;;;;;;5024869;28;20037;-77
2023/02/13 06:13:42;;;;;;;116.05;56.45;;;3.80;89.40;;;;;;5043926;28;20033;-74
2023/02/13 06:16:09;;;;;;;103.07;54.22;;;3.80;89.30;;;;;;5038338;28;20033;-74
2023/02/13 06:18:35;;;;;;;98.50;53.63;;;3.70;89.30;;;;;;5035730;28;20038;-75
2023/02/13 06:21:01;;;;;;;131.77;51.55;;;3.70;89.40;;;;;;5032951;28;20472;-76
2023/02/13 06:23:27;;;;;;;150.35;47.58;;;3.70;89.30;;;;;;5037570;28;20040;-75
2023/02/13 06:25:53;;;;;;;99.00;48.65;;;3.60;89.30;;;;;;5019625;28;20124;-76
2023/02/13 06:28:18;;;;;;;72.53;43.72;;;3.60;89.40;;;;;;5036094;28;20033;-76
2023/02/13 06:30:44;;;;;;;80.78;42.88;;;3.50;89.40;;;;;;5042682;28;20085;-74
2023/02/13 06:33:10;;;;;;;251.68;51.30;;;3.40;89.30;;;;;;5044505;28;20020;-75
2023/02/13 06:35:36;;;;;;;125.07;46.72;;;3.30;89.30;;;;;;5029775;28;20021;-74
2023/02/13 06:38:01;;;;;;;71.40;44.28;;;3.30;89.50;;;;;;5050452;28;20040;-75
2023/02/13 06:40:27;;;;;;;68.43;43.05;;;3.20;89.60;;;;;;5044100;28;20084;-75
2023/02/13 06:42:53;;;;;;;80.72;49.17;;;3.10;89.60;;;;;;5044840;28;20035;-74
2023/02/13 06:45:18;;;;;;;107.50;51.92;;;3.10;89.70;;;;;;5051966;28;20037;-75
2023/02/13 06:47:46;;;;;;;87.30;54.15;;;3.10;89.70;;;;;;5042861;28;20126;-75
2023/02/13 06:50:14;;;;;;;85.28;55.83;;;3.10;89.80;;;;;;5040024;28;20013;-75
2023/02/13 06:52:49;;;;;;;97.85;60.92;;;3.00;89.80;;;;;;5045908;28;20114;-75
2023/02/13 06:55:16;;;;;;;146.68;62.00;;;3.00;89.90;;;;;;5039505;28;20124;-74
2023/02/13 06:57:43;;;;;;;155.35;65.13;;;2.90;89.90;;;;;;5036532;28;20513;-74
2023/02/13 07:00:12;;;;;;;233.50;68.28;;;2.80;89.60;;;;;;5045295;28;20112;-76
2023/02/13 07:02:40;;;;;;;98.25;66.70;;;2.70;89.50;;;;;;5044844;28;20033;-74
2023/02/13 07:05:07;;;;;;;95.13;69.00;;;2.60;89.50;;;;;;5046334;28;20100;-75
2023/02/13 07:07:34;;;;;;;194.55;70.18;;;2.60;89.60;;;;;;5040714;28;20505;-75
2023/02/13 07:10:00;;;;;;;204.45;72.10;;;2.40;89.50;;;;;;5040321;28;20013;-75
2023/02/13 07:12:26;;;;;;;96.53;53.78;;;2.20;89.70;;;;;;5040761;28;20481;-75
2023/02/13 07:14:51;;;;;;;91.55;57.28;;;2.10;90.00;;;;;;5039967;28;20369;-77
2023/02/13 07:17:17;;;;;;;70.00;45.30;;;2.20;90.30;;;;;;5043320;28;20044;-76
2023/02/13 07:19:43;;;;;;;61.05;40.78;;;2.20;90.40;;;;;;5047711;28;20028;-77
2023/02/13 07:22:08;;;;;;;188.43;45.80;;;2.30;90.50;;;;;;5047062;28;20036;-77
2023/02/13 07:24:34;;;;;;;73.65;37.28;;;2.30;90.40;;;;;;5047642;28;20025;-76
2023/02/13 07:27:00;;;;;;;48.33;35.70;;;2.30;90.30;;;;;;5029154;28;20048;-77
2023/02/13 07:29:26;;;;;;;51.88;36.80;;;2.30;90.40;;;;;;5045837;28;20713;-77
2023/02/13 07:31:52;;;;;;;52.83;37.83;;;2.40;90.50;;;;;;5023866;28;20040;-77
2023/02/13 07:34:17;;;;;;;52.17;36.30;;;2.40;90.40;;;;;;5041857;28;20024;-77
2023/02/13 07:36:43;;;;;;;56.70;38.83;;;2.30;90.30;;;;;;5048243;28;20044;-76
2023/02/13 07:39:09;;;;;;;51.13;37.03;;;2.40;90.40;;;;;;5026111;28;20025;-76
2023/02/13 07:41:34;;;;;;;52.60;39.30;;;2.40;90.50;;;;;;5042426;28;20509;-76
2023/02/13 07:44:00;;;;;;;55.42;39.83;;;2.50;90.50;;;;;;5041622;28;20481;-74
2023/02/13 07:46:26;;;;;;;55.83;41.30;;;2.50;90.40;;;;;;5036246;28;20041;-73
2023/02/13 07:48:52;;;;;;;52.10;37.97;;;2.50;90.30;;;;;;5042800;28;20032;-74
2023/02/13 07:51:17;;;;;;;52.78;39.97;;;2.50;90.20;;;;;;5046988;28;20501;-74
2023/02/13 07:53:43;;;;;;;88.07;60.83;;;2.60;90.20;;;;;;5043249;28;20067;-78
2023/02/13 07:56:10;;;;;;;111.18;80.93;;;2.60;90.00;;;;;;5025410;28;20497;-75
2023/02/13 07:58:38;;;;;;;125.13;90.05;;;2.60;89.80;;;;;;5041920;28;20509;-76
2023/02/13 08:01:13;;;;;;;130.43;92.18;;;2.60;89.80;;;;;;5039890;28;20550;-75
2023/02/13 08:03:39;;;;;;;78.85;56.83;;;2.60;89.90;;;;;;5021810;28;20036;-77
2023/02/13 08:06:05;;;;;;;63.80;46.90;;;2.60;89.80;;;;;;5041673;28;20060;-76
2023/02/13 08:08:31;;;;;;;55.17;39.70;;;2.60;89.80;;;;;;5039065;28;20055;-75
2023/02/13 08:13:46;;;;;;;57.38;42.78;;;2.60;90.10;;;;;;5041841;28;20562;-76
2023/02/13 08:16:12;;;;;;;54.63;40.83;;;2.70;90.30;;;;;;5039625;28;20062;-75
2023/02/13 08:18:37;;;;;;;53.17;38.28;;;2.70;90.30;;;;;;5029689;28;20393;-76
2023/02/13 08:21:03;;;;;;;49.47;36.95;;;2.80;90.30;;;;;;5040884;28;20041;-75
2023/02/13 08:23:29;;;;;;;51.80;36.75;;;3.00;90.40;;;;;;5044061;28;20068;-76
2023/02/13 08:25:59;;;;;;;49.55;36.92;;;3.10;90.40;;;;;;5045395;28;20029;-75
2023/02/13 08:28:25;;;;;;;47.53;35.60;;;3.20;90.40;;;;;;5044592;28;20021;-76
2023/02/13 08:30:50;;;;;;;55.28;37.92;;;3.20;90.20;;;;;;5041005;28;20053;-76
2023/02/13 08:33:16;;;;;;;50.63;35.55;;;3.40;90.20;;;;;;5029380;28;20025;-77
2023/02/13 08:35:42;;;;;;;49.25;35.67;;;3.50;90.20;;;;;;5035655;28;20025;-75
2023/02/13 08:38:08;;;;;;;47.33;34.50;;;3.60;90.10;;;;;;5041298;28;20066;-76
2023/02/13 08:40:34;;;;;;;50.50;35.33;;;3.80;90.10;;;;;;5026194;28;20029;-76
2023/02/13 08:43:01;;;;;;;51.38;35.15;;;3.90;90.00;;;;;;5028417;28;21562;-77
2023/02/13 08:45:27;;;;;;;51.35;36.20;;;4.10;89.90;;;;;;5046617;28;20033;-76
2023/02/13 08:47:56;;;;;;;52.65;36.95;;;4.20;89.80;;;;;;5044953;28;20516;-75
2023/02/13 08:50:22;;;;;;;48.00;33.50;;;4.30;89.60;;;;;;5045007;28;20413;-77
2023/02/13 08:52:47;;;;;;;47.35;33.58;;;4.40;89.50;;;;;;5045301;28;20024;-77
2023/02/13 08:55:13;;;;;;;48.75;32.92;;;4.60;89.40;;;;;;5043739;28;20452;-76
2023/02/13 08:57:39;;;;;;;52.33;34.88;;;4.80;89.40;;;;;;5056389;28;20037;-79
2023/02/13 09:00:05;;;;;;;50.47;35.30;;;5.00;89.00;;;;;;5047833;28;20501;-77
2023/02/13 09:02:31;;;;;;;54.72;37.20;;;5.10;88.70;;;;;;5031547;28;20040;-77
2023/02/13 09:04:56;;;;;;;55.70;36.40;;;5.30;88.60;;;;;;5056392;28;20024;-76
2023/02/13 09:07:22;;;;;;;51.92;36.17;;;5.60;88.70;;;;;;5045561;28;20060;-76
2023/02/13 09:09:48;;;;;;;51.53;35.95;;;5.90;88.60;;;;;;5047742;28;20258;-77
2023/02/13 09:12:13;;;;;;;53.70;36.25;;;6.10;87.80;;;;;;5041500;28;20033;-76
2023/02/13 09:14:39;;;;;;;49.90;35.90;;;6.40;87.70;;;;;;5047153;28;20068;-77
2023/02/13 09:17:05;;;;;;;47.80;34.28;;;6.60;86.80;;;;;;5021399;28;20037;-78
2023/02/13 09:19:31;;;;;;;54.05;36.05;;;6.90;86.30;;;;;;5047755;28;20029;-76
2023/02/13 09:21:56;;;;;;;51.33;34.55;;;7.10;85.90;;;;;;5045343;28;20453;-76
2023/02/13 09:24:22;;;;;;;46.85;33.55;;;7.30;84.30;;;;;;5046643;28;20049;-76
2023/02/13 09:26:48;;;;;;;46.38;32.13;;;7.50;84.40;;;;;;5046165;28;20531;-77
2023/02/13 09:29:13;;;;;;;49.67;33.58;;;7.70;84.50;;;;;;5028583;28;20128;-76
2023/02/13 09:31:39;;;;;;;47.78;33.50;;;8.00;83.80;;;;;;5026259;28;20040;-77
2023/02/13 09:34:05;;;;;;;48.47;32.67;;;8.10;83.00;;;;;;5047730;28;20033;-76
2023/02/13 09:36:32;;;;;;;47.92;31.95;;;8.40;82.80;;;;;;5045406;28;20043;-78
2023/02/13 09:38:57;;;;;;;42.88;31.35;;;8.50;81.60;;;;;;5047927;28;20115;-80
2023/02/13 09:41:27;;;;;;;44.85;30.05;;;8.60;81.80;;;;;;5041451;28;20123;-79
2023/02/13 09:44:00;;;;;;;46.00;29.80;;;8.70;81.50;;;;;;5046566;28;20044;-81
2023/02/13 09:46:35;;;;;;;47.17;30.55;;;8.90;80.70;;;;;;5043006;28;20497;-79
2023/02/13 09:49:23;;;;;;;42.80;27.60;;;9.00;81.30;;;;;;5042637;28;20021;-80
2023/02/13 09:51:54;;;;;;;45.47;29.15;;;9.10;80.10;;;;;;5042886;28;20082;-81
2023/02/13 09:54:20;;;;;;;46.70;30.50;;;9.10;80.20;;;;;;5046922;28;20041;-80
2023/02/13 09:57:03;;;;;;;44.13;29.02;;;9.30;80.40;;;;;;5044906;28;20386;-77
2023/02/13 09:59:36;;;;;;;41.35;25.85;;;9.40;79.30;;;;;;5052922;28;20035;-79
2023/02/13 10:02:28;;;;;;;43.15;28.52;;;9.50;78.60;;;;;;5044773;28;20032;-79
2023/02/13 10:05:14;;;;;;;41.60;26.92;;;9.60;78.60;;;;;;4998583;28;20045;-81
2023/02/13 10:08:02;;;;;;;40.53;25.88;;;9.70;78.10;;;;;;5035566;28;20071;-82
2023/02/13 10:10:52;;;;;;;40.25;26.38;;;9.70;77.40;;;;;;5044009;28;20056;-79
2023/02/13 10:13:49;;;;;;;38.78;25.63;;;9.80;77.50;;;;;;5044073;28;20108;-78
2023/02/13 10:16:22;;;;;;;42.40;26.30;;;9.80;76.80;;;;;;5041439;28;20037;-78
2023/02/13 10:19:09;;;;;;;44.53;27.00;;;9.80;76.50;;;;;;5039671;28;20056;-79
2023/02/13 10:21:58;;;;;;;39.42;26.13;;;10.00;76.70;;;;;;5045534;28;20073;-79
2023/02/13 10:24:34;;;;;;;41.85;26.58;;;10.10;76.50;;;;;;5041859;28;20033;-76
2023/02/13 10:27:08;;;;;;;43.85;28.95;;;10.10;75.90;;;;;;5043744;28;20535;-82
2023/02/13 10:30:08;;;;;;;41.70;27.30;;;10.30;75.40;;;;;;5027884;28;20637;-83
2023/02/13 10:33:18;;;;;;;43.22;28.65;;;10.40;75.00;;;;;;5044710;28;20519;-79
2023/02/13 10:36:05;;;;;;;41.55;26.75;;;10.40;74.90;;;;;;5043723;28;20073;-77
2023/02/13 10:38:33;;;;;;;44.47;28.23;;;10.50;74.80;;;;;;5044588;28;20127;-77
2023/02/13 10:41:22;;;;;;;41.15;28.20;;;10.50;74.90;;;;;;5044970;28;20539;-78
2023/02/13 10:44:00;;;;;;;44.20;29.75;;;10.60;73.50;;;;;;5044503;28;20040;-77
2023/02/13 10:47:05;;;;;;;43.28;27.88;;;10.60;73.30;;;;;;5041197;28;20033;-75
2023/02/13 10:49:55;;;;;;;43.13;28.63;;;10.80;73.90;;;;;;5044069;28;20049;-75
2023/02/13 10:52:42;;;;;;;41.38;28.27;;;10.80;73.80;;;;;;5025147;28;20461;-76
2023/02/13 10:55:25;;;;;;;37.85;28.27;;;10.90;73.50;;;;;;5040720;28;20056;-76
2023/02/13 10:58:19;;;;;;;42.50;27.98;;;11.10;73.80;;;;;;5042757;28;20401;-75
2023/02/13 11:01:18;;;;;;;41.88;28.67;;;11.10;72.40;;;;;;5038267;28;20094;-77
2023/02/13 11:03:46;;;;;;;39.70;27.30;;;11.10;72.80;;;;;;5044896;28;20079;-75
2023/02/13 11:06:16;;;;;;;37.90;25.58;;;11.10;72.50;;;;;;5044707;28;20060;-77
2023/02/13 11:08:44;;;;;;;40.80;29.00;;;11.10;72.70;;;;;;5038150;28;20063;-76
2023/02/13 11:11:35;;;;;;;40.97;27.70;;;11.10;72.60;;;;;;5036123;28;20041;-76
2023/02/13 11:14:16;;;;;;;39.95;27.50;;;11.20;72.50;;;;;;5042468;28;20025;-77
2023/02/13 11:16:56;;;;;;;37.97;27.35;;;11.20;71.70;;;;;;5040792;28;20036;-75
2023/02/13 11:19:30;;;;;;;40.83;27.65;;;11.30;71.80;;;;;;5045081;28;20036;-82
2023/02/13 11:22:18;;;;;;;39.03;26.98;;;11.30;71.20;;;;;;5042230;28;20134;-77
2023/02/13 11:24:54;;;;;;;40.63;27.27;;;11.30;71.30;;;;;;5026945;28;20037;-78
2023/02/13 11:27:25;;;;;;;40.90;26.98;;;11.50;71.70;;;;;;5041744;28;20101;-81
2023/02/13 11:29:57;;;;;;;38.70;26.75;;;11.60;72.00;;;;;;5040412;28;20091;-79
2023/02/13 11:32:25;;;;;;;42.08;29.50;;;11.50;71.10;;;;;;5034594;28;20040;-78
2023/02/13 11:34:53;;;;;;;40.22;27.38;;;11.40;71.60;;;;;;5019783;28;20041;-81
2023/02/13 11:37:21;;;;;;;38.95;27.63;;;11.50;71.20;;;;;;5035004;28;20242;-77
2023/02/13 11:39:50;;;;;;;41.08;27.42;;;11.60;71.40;;;;;;5038552;28;20055;-79
2023/02/13 11:42:27;;;;;;;42.30;27.88;;;11.60;71.30;;;;;;5037011;28;20037;-78
2023/02/13 11:45:23;;;;;;;39.25;27.70;;;11.60;70.60;;;;;;5023591;28;20544;-77
2023/02/13 11:47:49;;;;;;;39.63;27.73;;;11.80;70.80;;;;;;5034417;28;20120;-79
2023/02/13 11:50:34;;;;;;;41.55;27.52;;;11.70;70.10;;;;;;5034768;28;20105;-82
2023/02/13 11:53:03;;;;;;;42.30;30.15;;;11.90;70.70;;;;;;5034509;28;20377;-81
2023/02/13 11:55:32;;;;;;;38.47;28.33;;;11.80;70.40;;;;;;5036471;28;20037;-78
2023/02/13 11:57:59;;;;;;;40.75;28.25;;;11.80;69.90;;;;;;5035281;28;20059;-78
2023/02/13 12:00:31;;;;;;;39.85;28.73;;;11.70;69.60;;;;;;5032185;28;20631;-78
2023/02/13 12:02:56;;;;;;;38.65;27.80;;;11.60;70.60;;;;;;5036107;28;20021;-78
2023/02/13 12:05:25;;;;;;;41.13;29.75;;;11.80;71.40;;;;;;5034904;28;20365;-80
2023/02/13 12:07:51;;;;;;;38.10;27.33;;;11.90;71.00;;;;;;5036452;28;20081;-80
2023/02/13 12:10:28;;;;;;;39.75;28.08;;;12.00;70.40;;;;;;5034602;28;20025;-78
2023/02/13 12:13:19;;;;;;;40.38;29.55;;;12.10;70.10;;;;;;5032922;28;20045;-79
2023/02/13 12:15:49;;;;;;;39.65;28.95;;;12.10;69.50;;;;;;5036441;28;20083;-81
2023/02/13 12:18:33;;;;;;;40.55;29.45;;;12.20;70.10;;;;;;5033266;28;20030;-78
2023/02/13 12:20:59;;;;;;;42.58;31.27;;;12.20;69.50;;;;;;5021484;28;20044;-78
2023/02/13 12:23:41;;;;;;;39.20;28.13;;;12.10;69.20;;;;;;5037653;28;20517;-80
2023/02/13 12:26:43;;;;;;;40.83;27.75;;;12.30;69.30;;;;;;5032061;28;20084;-77
2023/02/13 12:29:41;;;;;;;41.45;29.25;;;12.10;69.20;;;;;;5025335;28;20040;-78
2023/02/13 12:32:25;;;;;;;43.13;29.70;;;12.10;69.10;;;;;;5016082;28;20040;-77
2023/02/13 12:35:19;;;;;;;42.45;29.80;;;12.20;69.80;;;;;;5044527;28;20017;-78
2023/02/13 12:37:55;;;;;;;44.60;31.75;;;12.40;69.50;;;;;;5047077;28;20059;-78
2023/02/13 12:40:50;;;;;;;46.33;31.13;;;12.40;69.50;;;;;;5033461;28;20033;-77
2023/02/13 12:43:34;;;;;;;;;;;12.30;69.60;;;;;;5045461;28;20033;-75
2023/02/13 12:46:15;;;;;;;45.53;31.50;;;12.30;69.70;;;;;;5048018;28;19916;-78
2023/02/13 12:49:02;;;;;;;39.33;28.48;;;12.30;69.30;;;;;;5054040;28;20033;-79
2023/02/13 12:51:48;;;;;;;39.35;26.40;;;12.30;70.70;;;;;;5046486;28;20041;-81
2023/02/13 12:54:32;;;;;;;33.63;25.40;;;12.20;70.10;;;;;;5030663;28;20028;-76
2023/02/13 12:57:13;;;;;;;38.05;26.30;;;12.20;70.00;;;;;;5049059;28;20114;-80
2023/02/13 12:59:53;;;;;;;35.97;26.92;;;12.20;69.80;;;;;;5052058;28;20036;-78
2023/02/13 13:03:03;;;;;;;38.55;26.55;;;12.30;70.50;;;;;;5048386;28;20040;-78
2023/02/13 13:05:48;;;;;;;38.83;28.15;;;12.10;70.10;;;;;;5046640;28;20044;-79
2023/02/13 13:08:39;;;;;;;38.42;28.35;;;12.40;70.70;;;;;;5033725;28;20546;-79
2023/02/13 13:11:40;;;;;;;37.10;26.30;;;12.40;70.50;;;;;;5044192;28;20041;-77
2023/02/13 13:14:30;;;;;;;36.08;26.55;;;12.50;70.10;;;;;;5046138;28;20033;-78
2023/02/13 13:17:08;;;;;;;34.72;24.95;;;12.40;69.40;;;;;;5029946;28;20045;-80
2023/02/13 13:20:03;;;;;;;39.90;27.50;;;12.50;70.30;;;;;;5041404;28;20029;-79
2023/02/13 13:22:45;;;;;;;36.40;27.15;;;12.30;70.70;;;;;;5047073;28;20044;-79
2023/02/13 13:25:47;;;;;;;36.60;26.27;;;12.50;70.90;;;;;;5032330;28;20468;-79
2023/02/13 13:28:15;;;;;;;34.50;26.30;;;12.60;70.00;;;;;;5049529;28;20045;-77
2023/02/13 13:30:42;;;;;;;39.65;26.73;;;12.60;69.50;;;;;;5030343;28;20393;-76
2023/02/13 13:33:20;;;;;;;38.33;27.52;;;12.40;70.30;;;;;;5036431;28;20492;-77
2023/02/13 13:35:57;;;;;;;37.08;26.20;;;12.50;70.00;;;;;;5036896;28;20036;-74
2023/02/13 13:38:28;;;;;;;35.20;26.35;;;12.40;70.50;;;;;;5047173;28;20037;-77